sensor_id;sensor_type;location;lat;lon;timestamp;P1;durP1;ratioP1;P2;durP2;ratioP2
22248;SDS011;67538;52.180;5.646;2024-01-15T00:00:17;13.53;;;2.83;;
22248;SDS011;67538;52.180;5.646;2024-01-15T00:02:46;8.97;;;2.50;;
22248;SDS011;67538;52.180;5.646;2024-01-15T00:05:13;15.23;;;2.90;;
22248;SDS011;67538;52.180;5.646;2024-01-15T00:07:40;16.67;;;3.10;;
22248;SDS011;67538;52.180;5.646;2024-01-15T00:10:08;10.43;;;3.33;;
22248;SDS011;67538;52.180;5.646;2024-01-15T00:12:35;14.00;;;3.37;;
22248;SDS011;67538;52.180;5.646;2024-01-15T00:15:02;13.67;;;3.10;;
22248;SDS011;67538;52.180;5.646;2024-01-15T00:17:30;16.50;;;2.73;;
22248;SDS011;67538;52.180;5.646;2024-01-15T00:19:58;13.67;;;2.93;;
22248;SDS011;67538;52.180;5.646;2024-01-15T00:22:25;14.23;;;3.17;;
22248;SDS011;67538;52.180;5.646;2024-01-15T00:24:52;16.90;;;2.40;;
22248;SDS011;67538;52.180;5.646;2024-01-15T00:27:20;10.07;;;3.00;;
22248;SDS011;67538;52.180;5.646;2024-01-15T00:29:47;17.57;;;2.50;;
22248;SDS011;67538;52.180;5.646;2024-01-15T00:32:15;11.13;;;2.80;;
22248;SDS011;67538;52.180;5.646;2024-01-15T00:34:42;14.10;;;2.93;;
22248;SDS011;67538;52.180;5.646;2024-01-15T00:37:11;9.63;;;2.87;;
22248;SDS011;67538;52.180;5.646;2024-01-15T00:39:38;20.13;;;3.00;;
22248;SDS011;67538;52.180;5.646;2024-01-15T00:42:05;18.43;;;3.13;;
22248;SDS011;67538;52.180;5.646;2024-01-15T00:44:32;14.23;;;2.83;;
22248;SDS011;67538;52.180;5.646;2024-01-15T00:46:59;27.70;;;2.97;;
22248;SDS011;67538;52.180;5.646;2024-01-15T00:49:27;19.67;;;3.30;;
22248;SDS011;67538;52.180;5.646;2024-01-15T00:51:54;17.90;;;3.00;;
22248;SDS011;67538;52.180;5.646;2024-01-15T00:54:22;13.30;;;2.73;;
22248;SDS011;67538;52.180;5.646;2024-01-15T00:56:49;21.60;;;4.13;;
22248;SDS011;67538;52.180;5.646;2024-01-15T00:59:16;11.37;;;2.73;;
22248;SDS011;67538;52.180;5.646;2024-01-15T01:01:45;17.90;;;2.80;;
22248;SDS011;67538;52.180;5.646;2024-01-15T01:04:13;11.77;;;2.80;;
22248;SDS011;67538;52.180;5.646;2024-01-15T01:06:40;11.63;;;2.60;;
22248;SDS011;67538;52.180;5.646;2024-01-15T01:09:07;20.23;;;3.07;;
22248;SDS011;67538;52.180;5.646;2024-01-15T01:11:34;24.97;;;3.67;;
22248;SDS011;67538;52.180;5.646;2024-01-15T01:14:01;15.87;;;2.70;;
22248;SDS011;67538;52.180;5.646;2024-01-15T01:16:28;23.20;;;3.03;;
22248;SDS011;67538;52.180;5.646;2024-01-15T01:18:56;19.87;;;3.23;;
22248;SDS011;67538;52.180;5.646;2024-01-15T01:21:23;17.10;;;2.93;;
22248;SDS011;67538;52.180;5.646;2024-01-15T01:23:51;31.27;;;3.13;;
22248;SDS011;67538;52.180;5.646;2024-01-15T01:26:18;16.63;;;2.40;;
22248;SDS011;67538;52.180;5.646;2024-01-15T01:28:46;21.37;;;2.87;;
22248;SDS011;67538;52.180;5.646;2024-01-15T01:31:13;22.07;;;2.80;;
22248;SDS011;67538;52.180;5.646;2024-01-15T01:33:41;31.97;;;3.50;;
22248;SDS011;67538;52.180;5.646;2024-01-15T01:36:08;17.57;;;2.67;;
22248;SDS011;67538;52.180;5.646;2024-01-15T01:38:36;19.57;;;2.60;;
22248;SDS011;67538;52.180;5.646;2024-01-15T01:41:03;19.20;;;3.07;;
22248;SDS011;67538;52.180;5.646;2024-01-15T01:43:30;16.37;;;3.13;;
22248;SDS011;67538;52.180;5.646;2024-01-15T01:46:00;28.50;;;3.43;;
22248;SDS011;67538;52.180;5.646;2024-01-15T01:48:28;16.87;;;2.90;;
22248;SDS011;67538;52.180;5.646;2024-01-15T01:50:58;11.43;;;3.27;;
22248;SDS011;67538;52.180;5.646;2024-01-15T01:53:26;12.77;;;2.70;;
22248;SDS011;67538;52.180;5.646;2024-01-15T01:55:55;12.93;;;2.47;;
22248;SDS011;67538;52.180;5.646;2024-01-15T01:58:24;12.70;;;2.80;;
22248;SDS011;67538;52.180;5.646;2024-01-15T02:00:52;14.23;;;2.37;;
22248;SDS011;67538;52.180;5.646;2024-01-15T02:03:21;11.33;;;2.83;;
22248;SDS011;67538;52.180;5.646;2024-01-15T02:05:48;18.83;;;2.70;;
22248;SDS011;67538;52.180;5.646;2024-01-15T02:08:15;19.90;;;3.10;;
22248;SDS011;67538;52.180;5.646;2024-01-15T02:10:43;19.20;;;2.57;;
22248;SDS011;67538;52.180;5.646;2024-01-15T02:13:10;12.17;;;2.23;;
22248;SDS011;67538;52.180;5.646;2024-01-15T02:15:37;18.57;;;3.03;;
22248;SDS011;67538;52.180;5.646;2024-01-15T02:18:05;19.93;;;3.23;;
22248;SDS011;67538;52.180;5.646;2024-01-15T02:20:34;24.87;;;3.23;;
22248;SDS011;67538;52.180;5.646;2024-01-15T02:23:06;22.87;;;2.77;;
22248;SDS011;67538;52.180;5.646;2024-01-15T02:25:35;14.77;;;3.07;;
22248;SDS011;67538;52.180;5.646;2024-01-15T02:28:04;20.90;;;3.40;;
22248;SDS011;67538;52.180;5.646;2024-01-15T02:30:31;12.03;;;2.37;;
22248;SDS011;67538;52.180;5.646;2024-01-15T02:33:01;18.83;;;3.30;;
22248;SDS011;67538;52.180;5.646;2024-01-15T02:35:28;10.80;;;2.40;;
22248;SDS011;67538;52.180;5.646;2024-01-15T02:37:55;16.30;;;2.57;;
22248;SDS011;67538;52.180;5.646;2024-01-15T02:40:23;12.93;;;2.70;;
22248;SDS011;67538;52.180;5.646;2024-01-15T02:42:50;14.07;;;2.80;;
22248;SDS011;67538;52.180;5.646;2024-01-15T02:45:17;10.97;;;2.47;;
22248;SDS011;67538;52.180;5.646;2024-01-15T02:47:44;7.97;;;3.10;;
22248;SDS011;67538;52.180;5.646;2024-01-15T02:50:12;12.57;;;2.53;;
22248;SDS011;67538;52.180;5.646;2024-01-15T02:52:39;7.87;;;2.60;;
22248;SDS011;67538;52.180;5.646;2024-01-15T02:55:07;18.97;;;2.33;;
22248;SDS011;67538;52.180;5.646;2024-01-15T02:57:36;11.17;;;2.40;;
22248;SDS011;67538;52.180;5.646;2024-01-15T03:00:03;12.53;;;2.60;;
22248;SDS011;67538;52.180;5.646;2024-01-15T03:02:32;17.27;;;2.70;;
22248;SDS011;67538;52.180;5.646;2024-01-15T03:04:59;14.30;;;2.50;;
22248;SDS011;67538;52.180;5.646;2024-01-15T03:07:28;11.47;;;2.43;;
22248;SDS011;67538;52.180;5.646;2024-01-15T03:09:55;12.13;;;2.10;;
22248;SDS011;67538;52.180;5.646;2024-01-15T03:12:22;8.93;;;2.03;;
22248;SDS011;67538;52.180;5.646;2024-01-15T03:14:50;9.87;;;2.43;;
22248;SDS011;67538;52.180;5.646;2024-01-15T03:17:17;15.87;;;2.40;;
22248;SDS011;67538;52.180;5.646;2024-01-15T03:19:44;14.93;;;2.50;;
22248;SDS011;67538;52.180;5.646;2024-01-15T03:22:11;13.10;;;2.30;;
22248;SDS011;67538;52.180;5.646;2024-01-15T03:24:38;6.90;;;2.63;;
22248;SDS011;67538;52.180;5.646;2024-01-15T03:27:06;12.07;;;2.30;;
22248;SDS011;67538;52.180;5.646;2024-01-15T03:29:33;11.53;;;2.30;;
22248;SDS011;67538;52.180;5.646;2024-01-15T03:32:01;8.63;;;2.00;;
22248;SDS011;67538;52.180;5.646;2024-01-15T03:34:28;11.53;;;2.00;;
22248;SDS011;67538;52.180;5.646;2024-01-15T03:36:55;6.17;;;1.93;;
22248;SDS011;67538;52.180;5.646;2024-01-15T03:39:23;3.83;;;2.03;;
22248;SDS011;67538;52.180;5.646;2024-01-15T03:41:50;4.97;;;2.00;;
22248;SDS011;67538;52.180;5.646;2024-01-15T03:44:18;8.50;;;2.17;;
22248;SDS011;67538;52.180;5.646;2024-01-15T03:46:45;4.20;;;1.90;;
22248;SDS011;67538;52.180;5.646;2024-01-15T03:49:13;6.30;;;2.10;;
22248;SDS011;67538;52.180;5.646;2024-01-15T03:51:40;7.90;;;2.53;;
22248;SDS011;67538;52.180;5.646;2024-01-15T03:54:07;5.07;;;1.90;;
22248;SDS011;67538;52.180;5.646;2024-01-15T03:56:34;10.27;;;2.17;;
22248;SDS011;67538;52.180;5.646;2024-01-15T03:59:01;7.73;;;2.50;;
22248;SDS011;67538;52.180;5.646;2024-01-15T04:01:28;6.07;;;2.63;;
22248;SDS011;67538;52.180;5.646;2024-01-15T04:03:55;3.50;;;2.20;;
22248;SDS011;67538;52.180;5.646;2024-01-15T04:06:24;7.63;;;1.87;;
22248;SDS011;67538;52.180;5.646;2024-01-15T04:08:51;7.13;;;1.87;;
22248;SDS011;67538;52.180;5.646;2024-01-15T04:11:18;7.73;;;2.00;;
22248;SDS011;67538;52.180;5.646;2024-01-15T04:13:45;6.93;;;2.10;;
22248;SDS011;67538;52.180;5.646;2024-01-15T04:16:12;3.23;;;1.90;;
22248;SDS011;67538;52.180;5.646;2024-01-15T04:18:39;3.70;;;1.90;;
22248;SDS011;67538;52.180;5.646;2024-01-15T04:21:06;8.20;;;1.90;;
22248;SDS011;67538;52.180;5.646;2024-01-15T04:23:35;7.13;;;1.83;;
22248;SDS011;67538;52.180;5.646;2024-01-15T04:26:02;13.43;;;2.10;;
22248;SDS011;67538;52.180;5.646;2024-01-15T04:28:29;6.07;;;2.33;;
22248;SDS011;67538;52.180;5.646;2024-01-15T04:30:56;6.50;;;1.90;;
22248;SDS011;67538;52.180;5.646;2024-01-15T04:33:23;14.13;;;2.00;;
22248;SDS011;67538;52.180;5.646;2024-01-15T04:35:50;7.57;;;2.50;;
22248;SDS011;67538;52.180;5.646;2024-01-15T04:38:17;8.90;;;2.17;;
22248;SDS011;67538;52.180;5.646;2024-01-15T04:40:46;3.40;;;1.80;;
22248;SDS011;67538;52.180;5.646;2024-01-15T04:43:13;8.53;;;2.03;;
22248;SDS011;67538;52.180;5.646;2024-01-15T04:45:40;11.70;;;2.53;;
22248;SDS011;67538;52.180;5.646;2024-01-15T04:48:07;10.20;;;2.47;;
22248;SDS011;67538;52.180;5.646;2024-01-15T04:50:34;11.07;;;2.80;;
22248;SDS011;67538;52.180;5.646;2024-01-15T04:53:01;10.17;;;2.20;;
22248;SDS011;67538;52.180;5.646;2024-01-15T04:55:28;3.37;;;2.20;;
22248;SDS011;67538;52.180;5.646;2024-01-15T04:57:57;9.37;;;2.17;;
22248;SDS011;67538;52.180;5.646;2024-01-15T05:00:24;11.57;;;2.50;;
22248;SDS011;67538;52.180;5.646;2024-01-15T05:02:52;13.27;;;2.33;;
22248;SDS011;67538;52.180;5.646;2024-01-15T05:05:21;7.87;;;2.23;;
22248;SDS011;67538;52.180;5.646;2024-01-15T05:07:48;5.27;;;2.40;;
22248;SDS011;67538;52.180;5.646;2024-01-15T05:10:15;8.23;;;2.23;;
22248;SDS011;67538;52.180;5.646;2024-01-15T05:12:42;9.10;;;2.30;;
22248;SDS011;67538;52.180;5.646;2024-01-15T05:15:10;10.33;;;2.50;;
22248;SDS011;67538;52.180;5.646;2024-01-15T05:17:37;23.07;;;2.90;;
22248;SDS011;67538;52.180;5.646;2024-01-15T05:20:05;11.27;;;2.33;;
22248;SDS011;67538;52.180;5.646;2024-01-15T05:22:32;9.83;;;2.40;;
22248;SDS011;67538;52.180;5.646;2024-01-15T05:24:59;8.17;;;2.17;;
22248;SDS011;67538;52.180;5.646;2024-01-15T05:27:27;6.30;;;2.50;;
22248;SDS011;67538;52.180;5.646;2024-01-15T05:29:54;6.70;;;2.03;;
22248;SDS011;67538;52.180;5.646;2024-01-15T05:32:22;5.77;;;2.30;;
22248;SDS011;67538;52.180;5.646;2024-01-15T05:34:49;9.73;;;2.03;;
22248;SDS011;67538;52.180;5.646;2024-01-15T05:37:17;12.10;;;2.10;;
22248;SDS011;67538;52.180;5.646;2024-01-15T05:39:44;12.17;;;2.23;;
22248;SDS011;67538;52.180;5.646;2024-01-15T05:42:11;9.67;;;2.60;;
22248;SDS011;67538;52.180;5.646;2024-01-15T05:44:38;8.90;;;2.30;;
22248;SDS011;67538;52.180;5.646;2024-01-15T05:47:05;10.27;;;2.53;;
22248;SDS011;67538;52.180;5.646;2024-01-15T05:49:33;6.30;;;2.17;;
22248;SDS011;67538;52.180;5.646;2024-01-15T05:52:01;10.77;;;2.27;;
22248;SDS011;67538;52.180;5.646;2024-01-15T05:54:29;13.23;;;2.10;;
22248;SDS011;67538;52.180;5.646;2024-01-15T05:56:56;7.83;;;2.17;;
22248;SDS011;67538;52.180;5.646;2024-01-15T05:59:23;10.37;;;2.20;;
22248;SDS011;67538;52.180;5.646;2024-01-15T06:01:50;10.03;;;2.30;;
22248;SDS011;67538;52.180;5.646;2024-01-15T06:04:17;7.53;;;2.00;;
22248;SDS011;67538;52.180;5.646;2024-01-15T06:06:46;14.53;;;2.30;;
22248;SDS011;67538;52.180;5.646;2024-01-15T06:09:13;9.33;;;2.40;;
22248;SDS011;67538;52.180;5.646;2024-01-15T06:11:40;12.87;;;2.63;;
22248;SDS011;67538;52.180;5.646;2024-01-15T06:14:07;6.83;;;2.30;;
22248;SDS011;67538;52.180;5.646;2024-01-15T06:16:34;6.73;;;2.23;;
22248;SDS011;67538;52.180;5.646;2024-01-15T06:19:01;12.60;;;2.40;;
22248;SDS011;67538;52.180;5.646;2024-01-15T06:21:28;7.60;;;2.57;;
22248;SDS011;67538;52.180;5.646;2024-01-15T06:23:56;4.90;;;2.30;;
22248;SDS011;67538;52.180;5.646;2024-01-15T06:26:24;9.07;;;2.30;;
22248;SDS011;67538;52.180;5.646;2024-01-15T06:28:51;8.23;;;2.47;;
22248;SDS011;67538;52.180;5.646;2024-01-15T06:31:18;10.17;;;2.53;;
22248;SDS011;67538;52.180;5.646;2024-01-15T06:33:45;7.47;;;2.23;;
22248;SDS011;67538;52.180;5.646;2024-01-15T06:36:13;6.23;;;2.03;;
22248;SDS011;67538;52.180;5.646;2024-01-15T06:38:41;10.37;;;2.80;;
22248;SDS011;67538;52.180;5.646;2024-01-15T06:41:10;11.00;;;3.00;;
22248;SDS011;67538;52.180;5.646;2024-01-15T06:43:37;7.23;;;2.73;;
22248;SDS011;67538;52.180;5.646;2024-01-15T06:46:04;9.67;;;2.97;;
22248;SDS011;67538;52.180;5.646;2024-01-15T06:48:32;8.57;;;3.00;;
22248;SDS011;67538;52.180;5.646;2024-01-15T06:50:59;15.40;;;3.03;;
22248;SDS011;67538;52.180;5.646;2024-01-15T06:53:26;8.03;;;3.07;;
22248;SDS011;67538;52.180;5.646;2024-01-15T06:55:53;7.63;;;2.77;;
22248;SDS011;67538;52.180;5.646;2024-01-15T06:58:21;13.47;;;2.80;;
22248;SDS011;67538;52.180;5.646;2024-01-15T07:00:48;9.27;;;2.93;;
22248;SDS011;67538;52.180;5.646;2024-01-15T07:03:16;8.50;;;3.27;;
22248;SDS011;67538;52.180;5.646;2024-01-15T07:05:43;9.43;;;3.30;;
22248;SDS011;67538;52.180;5.646;2024-01-15T07:08:10;10.90;;;3.57;;
22248;SDS011;67538;52.180;5.646;2024-01-15T07:10:37;9.67;;;3.77;;
22248;SDS011;67538;52.180;5.646;2024-01-15T07:13:04;9.90;;;4.67;;
22248;SDS011;67538;52.180;5.646;2024-01-15T07:15:33;16.53;;;5.17;;
22248;SDS011;67538;52.180;5.646;2024-01-15T07:18:00;13.67;;;4.70;;
22248;SDS011;67538;52.180;5.646;2024-01-15T07:20:27;11.83;;;4.93;;
22248;SDS011;67538;52.180;5.646;2024-01-15T07:22:54;17.30;;;4.90;;
22248;SDS011;67538;52.180;5.646;2024-01-15T07:25:22;11.30;;;5.00;;
22248;SDS011;67538;52.180;5.646;2024-01-15T07:27:51;12.40;;;5.20;;
22248;SDS011;67538;52.180;5.646;2024-01-15T07:30:19;15.67;;;5.27;;
22248;SDS011;67538;52.180;5.646;2024-01-15T07:32:48;11.90;;;5.00;;
22248;SDS011;67538;52.180;5.646;2024-01-15T07:35:16;15.03;;;5.20;;
22248;SDS011;67538;52.180;5.646;2024-01-15T07:37:43;10.17;;;3.87;;
22248;SDS011;67538;52.180;5.646;2024-01-15T07:40:11;8.23;;;4.17;;
22248;SDS011;67538;52.180;5.646;2024-01-15T07:42:38;16.43;;;4.57;;
22248;SDS011;67538;52.180;5.646;2024-01-15T07:45:05;11.53;;;4.63;;
22248;SDS011;67538;52.180;5.646;2024-01-15T07:47:32;7.97;;;5.03;;
22248;SDS011;67538;52.180;5.646;2024-01-15T07:50:01;8.37;;;5.33;;
22248;SDS011;67538;52.180;5.646;2024-01-15T07:52:29;20.47;;;5.90;;
22248;SDS011;67538;52.180;5.646;2024-01-15T07:54:57;14.03;;;5.60;;
22248;SDS011;67538;52.180;5.646;2024-01-15T07:57:25;11.70;;;4.83;;
22248;SDS011;67538;52.180;5.646;2024-01-15T07:59:52;17.13;;;5.27;;
22248;SDS011;67538;52.180;5.646;2024-01-15T08:02:19;7.97;;;4.30;;
22248;SDS011;67538;52.180;5.646;2024-01-15T08:04:46;13.60;;;3.83;;
22248;SDS011;67538;52.180;5.646;2024-01-15T08:07:15;14.77;;;4.50;;
22248;SDS011;67538;52.180;5.646;2024-01-15T08:09:42;9.53;;;3.90;;
22248;SDS011;67538;52.180;5.646;2024-01-15T08:12:11;8.70;;;4.07;;
22248;SDS011;67538;52.180;5.646;2024-01-15T08:14:38;14.70;;;4.00;;
22248;SDS011;67538;52.180;5.646;2024-01-15T08:17:05;13.43;;;4.37;;
22248;SDS011;67538;52.180;5.646;2024-01-15T08:19:32;11.63;;;4.30;;
22248;SDS011;67538;52.180;5.646;2024-01-15T08:21:59;14.23;;;4.07;;
22248;SDS011;67538;52.180;5.646;2024-01-15T08:24:28;12.47;;;4.27;;
22248;SDS011;67538;52.180;5.646;2024-01-15T08:26:56;16.63;;;4.27;;
22248;SDS011;67538;52.180;5.646;2024-01-15T08:29:23;6.23;;;4.37;;
22248;SDS011;67538;52.180;5.646;2024-01-15T08:31:50;13.13;;;4.67;;
22248;SDS011;67538;52.180;5.646;2024-01-15T08:34:18;12.37;;;4.33;;
22248;SDS011;67538;52.180;5.646;2024-01-15T08:36:45;14.30;;;4.60;;
22248;SDS011;67538;52.180;5.646;2024-01-15T08:39:12;8.07;;;4.17;;
22248;SDS011;67538;52.180;5.646;2024-01-15T08:41:40;10.97;;;4.13;;
22248;SDS011;67538;52.180;5.646;2024-01-15T08:44:07;8.67;;;3.77;;
22248;SDS011;67538;52.180;5.646;2024-01-15T08:46:34;9.40;;;4.00;;
22248;SDS011;67538;52.180;5.646;2024-01-15T08:49:02;9.47;;;4.23;;
22248;SDS011;67538;52.180;5.646;2024-01-15T08:51:31;15.50;;;4.00;;
22248;SDS011;67538;52.180;5.646;2024-01-15T08:53:58;10.43;;;3.73;;
22248;SDS011;67538;52.180;5.646;2024-01-15T08:56:25;9.90;;;3.93;;
22248;SDS011;67538;52.180;5.646;2024-01-15T08:58:54;10.87;;;3.77;;
22248;SDS011;67538;52.180;5.646;2024-01-15T09:01:21;15.27;;;3.87;;
22248;SDS011;67538;52.180;5.646;2024-01-15T09:03:49;12.63;;;4.17;;
22248;SDS011;67538;52.180;5.646;2024-01-15T09:06:16;11.43;;;3.60;;
22248;SDS011;67538;52.180;5.646;2024-01-15T09:08:44;11.43;;;4.53;;
22248;SDS011;67538;52.180;5.646;2024-01-15T09:11:11;9.03;;;4.07;;
22248;SDS011;67538;52.180;5.646;2024-01-15T09:13:38;13.07;;;5.17;;
22248;SDS011;67538;52.180;5.646;2024-01-15T09:16:07;16.73;;;4.63;;
22248;SDS011;67538;52.180;5.646;2024-01-15T09:18:34;9.07;;;5.33;;
22248;SDS011;67538;52.180;5.646;2024-01-15T09:21:02;11.20;;;5.03;;
22248;SDS011;67538;52.180;5.646;2024-01-15T09:23:30;16.90;;;4.90;;
22248;SDS011;67538;52.180;5.646;2024-01-15T09:25:57;14.37;;;5.60;;
22248;SDS011;67538;52.180;5.646;2024-01-15T09:28:24;17.17;;;5.17;;
22248;SDS011;67538;52.180;5.646;2024-01-15T09:30:51;19.23;;;4.37;;
22248;SDS011;67538;52.180;5.646;2024-01-15T09:33:19;12.37;;;4.20;;
22248;SDS011;67538;52.180;5.646;2024-01-15T09:35:47;16.87;;;4.00;;
22248;SDS011;67538;52.180;5.646;2024-01-15T09:38:14;15.93;;;3.73;;
22248;SDS011;67538;52.180;5.646;2024-01-15T09:40:42;8.37;;;3.40;;
22248;SDS011;67538;52.180;5.646;2024-01-15T09:43:12;11.87;;;3.83;;
22248;SDS011;67538;52.180;5.646;2024-01-15T09:45:39;8.67;;;3.50;;
22248;SDS011;67538;52.180;5.646;2024-01-15T09:48:07;15.23;;;3.60;;
22248;SDS011;67538;52.180;5.646;2024-01-15T09:50:35;11.27;;;3.90;;
22248;SDS011;67538;52.180;5.646;2024-01-15T09:53:03;13.23;;;3.40;;
22248;SDS011;67538;52.180;5.646;2024-01-15T09:55:31;23.13;;;4.20;;
22248;SDS011;67538;52.180;5.646;2024-01-15T09:57:59;16.77;;;3.60;;
22248;SDS011;67538;52.180;5.646;2024-01-15T10:00:27;14.53;;;3.63;;
22248;SDS011;67538;52.180;5.646;2024-01-15T10:02:56;12.60;;;3.00;;
22248;SDS011;67538;52.180;5.646;2024-01-15T10:05:24;12.20;;;3.50;;
22248;SDS011;67538;52.180;5.646;2024-01-15T10:07:53;18.37;;;3.57;;
22248;SDS011;67538;52.180;5.646;2024-01-15T10:10:21;12.87;;;3.07;;
22248;SDS011;67538;52.180;5.646;2024-01-15T10:12:48;11.63;;;3.47;;
22248;SDS011;67538;52.180;5.646;2024-01-15T10:15:16;13.77;;;3.17;;
22248;SDS011;67538;52.180;5.646;2024-01-15T10:17:43;6.97;;;3.17;;
22248;SDS011;67538;52.180;5.646;2024-01-15T10:20:11;11.33;;;3.23;;
22248;SDS011;67538;52.180;5.646;2024-01-15T10:22:41;16.83;;;4.17;;
22248;SDS011;67538;52.180;5.646;2024-01-15T10:25:13;12.80;;;2.97;;
22248;SDS011;67538;52.180;5.646;2024-01-15T10:27:41;16.03;;;3.27;;
22248;SDS011;67538;52.180;5.646;2024-01-15T10:30:09;13.27;;;2.90;;
22248;SDS011;67538;52.180;5.646;2024-01-15T10:32:38;19.93;;;3.53;;
22248;SDS011;67538;52.180;5.646;2024-01-15T10:35:07;6.73;;;3.00;;
22248;SDS011;67538;52.180;5.646;2024-01-15T10:37:34;18.03;;;3.20;;
22248;SDS011;67538;52.180;5.646;2024-01-15T10:40:02;13.87;;;3.00;;
22248;SDS011;67538;52.180;5.646;2024-01-15T10:42:32;13.47;;;2.97;;
22248;SDS011;67538;52.180;5.646;2024-01-15T10:44:59;8.67;;;2.60;;
22248;SDS011;67538;52.180;5.646;2024-01-15T10:47:27;13.00;;;3.07;;
22248;SDS011;67538;52.180;5.646;2024-01-15T10:49:55;14.50;;;3.27;;
22248;SDS011;67538;52.180;5.646;2024-01-15T10:52:23;9.60;;;2.83;;
22248;SDS011;67538;52.180;5.646;2024-01-15T10:54:50;11.10;;;2.90;;
22248;SDS011;67538;52.180;5.646;2024-01-15T10:57:19;14.60;;;3.10;;
22248;SDS011;67538;52.180;5.646;2024-01-15T10:59:49;28.13;;;3.23;;
22248;SDS011;67538;52.180;5.646;2024-01-15T11:02:16;15.37;;;3.33;;
22248;SDS011;67538;52.180;5.646;2024-01-15T11:04:44;11.97;;;3.07;;
22248;SDS011;67538;52.180;5.646;2024-01-15T11:07:11;14.77;;;2.77;;
22248;SDS011;67538;52.180;5.646;2024-01-15T11:09:40;16.60;;;3.10;;
22248;SDS011;67538;52.180;5.646;2024-01-15T11:12:08;10.67;;;2.90;;
22248;SDS011;67538;52.180;5.646;2024-01-15T11:14:38;20.50;;;3.10;;
22248;SDS011;67538;52.180;5.646;2024-01-15T11:17:10;11.40;;;3.07;;
22248;SDS011;67538;52.180;5.646;2024-01-15T11:19:38;12.47;;;3.20;;
22248;SDS011;67538;52.180;5.646;2024-01-15T11:22:10;12.73;;;2.73;;
22248;SDS011;67538;52.180;5.646;2024-01-15T11:24:57;12.67;;;2.80;;
22248;SDS011;67538;52.180;5.646;2024-01-15T11:27:39;10.07;;;2.70;;
22248;SDS011;67538;52.180;5.646;2024-01-15T11:30:07;12.80;;;2.60;;
22248;SDS011;67538;52.180;5.646;2024-01-15T11:32:37;17.00;;;2.97;;
22248;SDS011;67538;52.180;5.646;2024-01-15T11:35:06;8.97;;;2.33;;
22248;SDS011;67538;52.180;5.646;2024-01-15T11:40:38;12.07;;;2.97;;
22248;SDS011;67538;52.180;5.646;2024-01-15T11:43:08;12.03;;;2.50;;
22248;SDS011;67538;52.180;5.646;2024-01-15T11:45:35;12.77;;;2.70;;
22248;SDS011;67538;52.180;5.646;2024-01-15T11:48:14;12.23;;;2.63;;
22248;SDS011;67538;52.180;5.646;2024-01-15T11:50:42;17.03;;;3.23;;
22248;SDS011;67538;52.180;5.646;2024-01-15T11:53:15;10.30;;;2.43;;
22248;SDS011;67538;52.180;5.646;2024-01-15T11:55:44;7.53;;;2.60;;
22248;SDS011;67538;52.180;5.646;2024-01-15T11:58:13;14.67;;;2.43;;
22248;SDS011;67538;52.180;5.646;2024-01-15T12:00:42;6.60;;;2.13;;
22248;SDS011;67538;52.180;5.646;2024-01-15T12:03:10;9.23;;;2.07;;
22248;SDS011;67538;52.180;5.646;2024-01-15T12:05:39;5.77;;;2.20;;
22248;SDS011;67538;52.180;5.646;2024-01-15T12:08:07;6.80;;;2.00;;
22248;SDS011;67538;52.180;5.646;2024-01-15T12:10:36;6.07;;;1.87;;
22248;SDS011;67538;52.180;5.646;2024-01-15T12:13:05;3.67;;;2.20;;
22248;SDS011;67538;52.180;5.646;2024-01-15T12:15:37;3.77;;;2.20;;
22248;SDS011;67538;52.180;5.646;2024-01-15T12:18:07;2.00;;;1.73;;
22248;SDS011;67538;52.180;5.646;2024-01-15T12:20:35;7.00;;;2.00;;
22248;SDS011;67538;52.180;5.646;2024-01-15T12:23:04;5.70;;;2.07;;
22248;SDS011;67538;52.180;5.646;2024-01-15T12:25:31;7.27;;;2.00;;
22248;SDS011;67538;52.180;5.646;2024-01-15T12:28:00;6.57;;;1.80;;
22248;SDS011;67538;52.180;5.646;2024-01-15T12:30:28;8.83;;;2.50;;
22248;SDS011;67538;52.180;5.646;2024-01-15T12:32:56;5.13;;;1.97;;
22248;SDS011;67538;52.180;5.646;2024-01-15T12:35:24;6.37;;;2.60;;
22248;SDS011;67538;52.180;5.646;2024-01-15T12:37:52;6.60;;;2.13;;
22248;SDS011;67538;52.180;5.646;2024-01-15T12:40:23;11.27;;;2.97;;
22248;SDS011;67538;52.180;5.646;2024-01-15T12:42:50;8.93;;;2.50;;
22248;SDS011;67538;52.180;5.646;2024-01-15T12:45:17;6.20;;;2.50;;
22248;SDS011;67538;52.180;5.646;2024-01-15T12:47:44;8.47;;;2.40;;
22248;SDS011;67538;52.180;5.646;2024-01-15T12:50:12;14.27;;;2.50;;
22248;SDS011;67538;52.180;5.646;2024-01-15T12:52:40;9.43;;;2.97;;
22248;SDS011;67538;52.180;5.646;2024-01-15T12:55:08;14.17;;;2.83;;
22248;SDS011;67538;52.180;5.646;2024-01-15T12:57:37;8.80;;;2.50;;
22248;SDS011;67538;52.180;5.646;2024-01-15T13:00:05;11.67;;;2.37;;
22248;SDS011;67538;52.180;5.646;2024-01-15T13:02:37;4.30;;;2.70;;
22248;SDS011;67538;52.180;5.646;2024-01-15T13:05:05;9.17;;;2.50;;
22248;SDS011;67538;52.180;5.646;2024-01-15T13:07:33;7.80;;;2.40;;
22248;SDS011;67538;52.180;5.646;2024-01-15T13:10:00;7.07;;;2.23;;
22248;SDS011;67538;52.180;5.646;2024-01-15T13:12:27;13.90;;;2.70;;
22248;SDS011;67538;52.180;5.646;2024-01-15T13:14:57;7.10;;;2.30;;
22248;SDS011;67538;52.180;5.646;2024-01-15T13:17:24;9.87;;;2.47;;
22248;SDS011;67538;52.180;5.646;2024-01-15T13:19:52;9.57;;;2.50;;
22248;SDS011;67538;52.180;5.646;2024-01-15T13:22:19;11.80;;;2.53;;
22248;SDS011;67538;52.180;5.646;2024-01-15T13:24:46;7.27;;;2.50;;
22248;SDS011;67538;52.180;5.646;2024-01-15T13:27:13;6.00;;;2.50;;
22248;SDS011;67538;52.180;5.646;2024-01-15T13:29:40;4.80;;;2.10;;
22248;SDS011;67538;52.180;5.646;2024-01-15T13:32:08;9.50;;;2.50;;
22248;SDS011;67538;52.180;5.646;2024-01-15T13:34:37;5.93;;;2.57;;
22248;SDS011;67538;52.180;5.646;2024-01-15T13:37:04;10.07;;;2.40;;
22248;SDS011;67538;52.180;5.646;2024-01-15T13:39:34;12.73;;;2.43;;
22248;SDS011;67538;52.180;5.646;2024-01-15T13:42:02;13.67;;;2.43;;
22248;SDS011;67538;52.180;5.646;2024-01-15T13:44:29;12.13;;;3.03;;
22248;SDS011;67538;52.180;5.646;2024-01-15T13:46:56;8.30;;;2.47;;
22248;SDS011;67538;52.180;5.646;2024-01-15T13:49:25;4.67;;;2.53;;
22248;SDS011;67538;52.180;5.646;2024-01-15T13:51:52;6.80;;;2.30;;
22248;SDS011;67538;52.180;5.646;2024-01-15T13:54:19;8.27;;;2.67;;
22248;SDS011;67538;52.180;5.646;2024-01-15T13:56:46;12.47;;;2.73;;
22248;SDS011;67538;52.180;5.646;2024-01-15T13:59:15;6.57;;;2.57;;
22248;SDS011;67538;52.180;5.646;2024-01-15T14:01:42;7.83;;;2.43;;
22248;SDS011;67538;52.180;5.646;2024-01-15T14:04:09;8.17;;;2.70;;
22248;SDS011;67538;52.180;5.646;2024-01-15T14:06:37;5.63;;;2.17;;
22248;SDS011;67538;52.180;5.646;2024-01-15T14:09:05;6.70;;;2.50;;
22248;SDS011;67538;52.180;5.646;2024-01-15T14:11:35;6.43;;;2.43;;
22248;SDS011;67538;52.180;5.646;2024-01-15T14:14:02;9.40;;;2.23;;
22248;SDS011;67538;52.180;5.646;2024-01-15T14:16:29;2.00;;;1.80;;
22248;SDS011;67538;52.180;5.646;2024-01-15T14:18:57;6.67;;;2.27;;
22248;SDS011;67538;52.180;5.646;2024-01-15T14:21:24;3.87;;;2.03;;
22248;SDS011;67538;52.180;5.646;2024-01-15T14:23:52;11.53;;;2.50;;
22248;SDS011;67538;52.180;5.646;2024-01-15T14:26:19;4.30;;;2.03;;
22248;SDS011;67538;52.180;5.646;2024-01-15T14:28:46;2.93;;;2.10;;
22248;SDS011;67538;52.180;5.646;2024-01-15T14:31:14;6.03;;;2.30;;
22248;SDS011;67538;52.180;5.646;2024-01-15T14:33:41;6.93;;;2.30;;
22248;SDS011;67538;52.180;5.646;2024-01-15T14:36:08;11.27;;;2.80;;
22248;SDS011;67538;52.180;5.646;2024-01-15T14:38:35;10.33;;;2.60;;
22248;SDS011;67538;52.180;5.646;2024-01-15T14:41:03;9.43;;;2.53;;
22248;SDS011;67538;52.180;5.646;2024-01-15T14:43:30;9.97;;;2.60;;
22248;SDS011;67538;52.180;5.646;2024-01-15T14:45:58;8.67;;;2.70;;